sensor_id;sensor_type;location;lat;lon;timestamp;P1;durP1;ratioP1;P2;durP2;ratioP2
44145;SDS011;29809;52.432;4.780;2022-07-09T00:01:22;4.07;;;2.92;;
44145;SDS011;29809;52.432;4.780;2022-07-09T00:03:47;5.85;;;3.47;;
44145;SDS011;29809;52.432;4.780;2022-07-09T00:06:12;7.68;;;3.75;;
44145;SDS011;29809;52.432;4.780;2022-07-09T00:08:38;4.95;;;3.58;;
44145;SDS011;29809;52.432;4.780;2022-07-09T00:11:03;4.90;;;3.38;;
44145;SDS011;29809;52.432;4.780;2022-07-09T00:13:28;4.30;;;3.85;;
44145;SDS011;29809;52.432;4.780;2022-07-09T00:15:53;6.35;;;3.83;;
44145;SDS011;29809;52.432;4.780;2022-07-09T00:18:19;5.60;;;3.22;;
44145;SDS011;29809;52.432;4.780;2022-07-09T00:20:44;6.40;;;3.53;;
44145;SDS011;29809;52.432;4.780;2022-07-09T00:23:09;5.32;;;3.72;;
44145;SDS011;29809;52.432;4.780;2022-07-09T00:25:35;6.07;;;3.50;;
44145;SDS011;29809;52.432;4.780;2022-07-09T00:28:00;6.10;;;3.33;;
44145;SDS011;29809;52.432;4.780;2022-07-09T00:30:25;5.53;;;2.90;;
44145;SDS011;29809;52.432;4.780;2022-07-09T00:32:51;5.40;;;3.15;;
44145;SDS011;29809;52.432;4.780;2022-07-09T00:35:16;4.55;;;2.83;;
44145;SDS011;29809;52.432;4.780;2022-07-09T00:37:41;5.28;;;2.97;;
44145;SDS011;29809;52.432;4.780;2022-07-09T00:40:06;3.40;;;2.15;;
44145;SDS011;29809;52.432;4.780;2022-07-09T00:42:32;4.40;;;2.15;;
44145;SDS011;29809;52.432;4.780;2022-07-09T00:44:57;5.47;;;3.20;;
44145;SDS011;29809;52.432;4.780;2022-07-09T00:47:22;5.53;;;2.88;;
44145;SDS011;29809;52.432;4.780;2022-07-09T00:49:48;3.75;;;2.33;;
44145;SDS011;29809;52.432;4.780;2022-07-09T00:52:13;6.30;;;2.35;;
44145;SDS011;29809;52.432;4.780;2022-07-09T00:54:39;4.80;;;2.30;;
44145;SDS011;29809;52.432;4.780;2022-07-09T00:57:06;4.68;;;2.40;;
44145;SDS011;29809;52.432;4.780;2022-07-09T00:59:34;3.83;;;2.08;;
44145;SDS011;29809;52.432;4.780;2022-07-09T01:02:00;3.63;;;2.20;;
44145;SDS011;29809;52.432;4.780;2022-07-09T01:04:25;3.15;;;2.28;;
44145;SDS011;29809;52.432;4.780;2022-07-09T01:06:51;3.85;;;2.05;;
44145;SDS011;29809;52.432;4.780;2022-07-09T01:09:16;4.50;;;2.70;;
44145;SDS011;29809;52.432;4.780;2022-07-09T01:11:41;2.72;;;2.05;;
44145;SDS011;29809;52.432;4.780;2022-07-09T01:14:06;4.13;;;2.30;;
44145;SDS011;29809;52.432;4.780;2022-07-09T01:16:32;2.40;;;2.15;;
44145;SDS011;29809;52.432;4.780;2022-07-09T01:18:58;3.78;;;2.00;;
44145;SDS011;29809;52.432;4.780;2022-07-09T01:21:23;3.85;;;2.00;;
44145;SDS011;29809;52.432;4.780;2022-07-09T01:23:48;2.50;;;1.92;;
44145;SDS011;29809;52.432;4.780;2022-07-09T01:26:14;2.97;;;2.20;;
44145;SDS011;29809;52.432;4.780;2022-07-09T01:28:39;3.55;;;2.30;;
44145;SDS011;29809;52.432;4.780;2022-07-09T01:31:04;4.15;;;2.10;;
44145;SDS011;29809;52.432;4.780;2022-07-09T01:33:29;2.92;;;2.42;;
44145;SDS011;29809;52.432;4.780;2022-07-09T01:35:56;4.38;;;2.40;;
44145;SDS011;29809;52.432;4.780;2022-07-09T01:38:22;2.70;;;1.73;;
44145;SDS011;29809;52.432;4.780;2022-07-09T01:40:47;4.25;;;2.28;;
44145;SDS011;29809;52.432;4.780;2022-07-09T01:43:13;1.60;;;1.38;;
44145;SDS011;29809;52.432;4.780;2022-07-09T01:45:38;3.30;;;1.63;;
44145;SDS011;29809;52.432;4.780;2022-07-09T01:48:03;4.18;;;2.10;;
44145;SDS011;29809;52.432;4.780;2022-07-09T01:50:29;3.90;;;2.20;;
44145;SDS011;29809;52.432;4.780;2022-07-09T01:52:54;5.28;;;2.40;;
44145;SDS011;29809;52.432;4.780;2022-07-09T01:55:19;2.63;;;2.17;;
44145;SDS011;29809;52.432;4.780;2022-07-09T01:57:44;2.28;;;2.00;;
44145;SDS011;29809;52.432;4.780;2022-07-09T02:00:10;3.85;;;2.33;;
44145;SDS011;29809;52.432;4.780;2022-07-09T02:02:35;3.50;;;2.17;;
44145;SDS011;29809;52.432;4.780;2022-07-09T02:05:01;3.13;;;2.50;;
44145;SDS011;29809;52.432;4.780;2022-07-09T02:07:26;4.75;;;2.30;;
44145;SDS011;29809;52.432;4.780;2022-07-09T02:09:51;2.67;;;2.30;;
44145;SDS011;29809;52.432;4.780;2022-07-09T02:12:17;4.30;;;2.25;;
44145;SDS011;29809;52.432;4.780;2022-07-09T02:14:42;2.67;;;1.88;;
44145;SDS011;29809;52.432;4.780;2022-07-09T02:17:07;2.33;;;2.00;;
44145;SDS011;29809;52.432;4.780;2022-07-09T02:19:33;2.30;;;1.77;;
44145;SDS011;29809;52.432;4.780;2022-07-09T02:21:58;3.03;;;1.73;;
44145;SDS011;29809;52.432;4.780;2022-07-09T02:24:23;2.00;;;1.70;;
44145;SDS011;29809;52.432;4.780;2022-07-09T02:26:48;3.97;;;2.10;;
44145;SDS011;29809;52.432;4.780;2022-07-09T02:29:14;3.97;;;1.70;;
44145;SDS011;29809;52.432;4.780;2022-07-09T02:31:39;1.58;;;1.30;;
44145;SDS011;29809;52.432;4.780;2022-07-09T02:34:04;2.00;;;1.80;;
44145;SDS011;29809;52.432;4.780;2022-07-09T02:36:29;2.90;;;1.85;;
44145;SDS011;29809;52.432;4.780;2022-07-09T02:38:55;1.50;;;1.40;;
44145;SDS011;29809;52.432;4.780;2022-07-09T02:41:20;2.05;;;1.40;;
44145;SDS011;29809;52.432;4.780;2022-07-09T02:43:45;2.38;;;1.42;;
44145;SDS011;29809;52.432;4.780;2022-07-09T02:46:10;2.35;;;1.58;;
44145;SDS011;29809;52.432;4.780;2022-07-09T02:48:36;2.35;;;1.63;;
44145;SDS011;29809;52.432;4.780;2022-07-09T02:51:01;1.60;;;1.40;;
44145;SDS011;29809;52.432;4.780;2022-07-09T02:53:26;1.98;;;1.40;;
44145;SDS011;29809;52.432;4.780;2022-07-09T02:55:52;4.85;;;1.60;;
44145;SDS011;29809;52.432;4.780;2022-07-09T02:58:17;3.00;;;1.88;;
44145;SDS011;29809;52.432;4.780;2022-07-09T03:00:42;4.78;;;2.10;;
44145;SDS011;29809;52.432;4.780;2022-07-09T03:03:07;2.00;;;1.88;;
44145;SDS011;29809;52.432;4.780;2022-07-09T03:05:33;3.58;;;2.20;;
44145;SDS011;29809;52.432;4.780;2022-07-09T03:07:59;3.25;;;1.80;;
44145;SDS011;29809;52.432;4.780;2022-07-09T03:10:24;3.00;;;1.73;;
44145;SDS011;29809;52.432;4.780;2022-07-09T03:12:49;2.20;;;1.52;;
44145;SDS011;29809;52.432;4.780;2022-07-09T03:15:14;2.40;;;1.55;;
44145;SDS011;29809;52.432;4.780;2022-07-09T03:17:42;1.95;;;1.70;;
44145;SDS011;29809;52.432;4.780;2022-07-09T03:20:07;2.38;;;1.77;;
44145;SDS011;29809;52.432;4.780;2022-07-09T03:22:32;3.75;;;1.70;;
44145;SDS011;29809;52.432;4.780;2022-07-09T03:24:58;2.15;;;1.95;;
44145;SDS011;29809;52.432;4.780;2022-07-09T03:27:23;1.65;;;1.50;;
44145;SDS011;29809;52.432;4.780;2022-07-09T03:29:48;1.70;;;1.60;;
44145;SDS011;29809;52.432;4.780;2022-07-09T03:32:13;3.17;;;1.90;;
44145;SDS011;29809;52.432;4.780;2022-07-09T03:34:39;1.35;;;1.25;;
44145;SDS011;29809;52.432;4.780;2022-07-09T03:37:05;2.70;;;1.55;;
44145;SDS011;29809;52.432;4.780;2022-07-09T03:39:30;1.30;;;1.23;;
44145;SDS011;29809;52.432;4.780;2022-07-09T03:41:55;2.38;;;1.60;;
44145;SDS011;29809;52.432;4.780;2022-07-09T03:44:21;1.80;;;1.50;;
44145;SDS011;29809;52.432;4.780;2022-07-09T03:46:46;2.92;;;1.50;;
44145;SDS011;29809;52.432;4.780;2022-07-09T03:49:11;1.52;;;1.42;;
44145;SDS011;29809;52.432;4.780;2022-07-09T03:51:36;2.70;;;1.42;;
44145;SDS011;29809;52.432;4.780;2022-07-09T03:54:02;4.30;;;1.70;;
44145;SDS011;29809;52.432;4.780;2022-07-09T03:56:27;2.10;;;1.30;;
44145;SDS011;29809;52.432;4.780;2022-07-09T03:58:52;1.30;;;1.13;;
44145;SDS011;29809;52.432;4.780;2022-07-09T04:01:17;1.30;;;1.20;;
44145;SDS011;29809;52.432;4.780;2022-07-09T04:03:43;1.42;;;1.23;;
44145;SDS011;29809;52.432;4.780;2022-07-09T04:06:08;2.92;;;1.38;;
44145;SDS011;29809;52.432;4.780;2022-07-09T04:08:34;2.05;;;1.40;;
44145;SDS011;29809;52.432;4.780;2022-07-09T04:10:59;1.27;;;1.17;;
44145;SDS011;29809;52.432;4.780;2022-07-09T04:13:24;3.35;;;1.55;;
44145;SDS011;29809;52.432;4.780;2022-07-09T04:15:49;2.42;;;1.20;;
44145;SDS011;29809;52.432;4.780;2022-07-09T04:18:15;1.92;;;1.17;;
44145;SDS011;29809;52.432;4.780;2022-07-09T04:20:40;2.03;;;1.27;;
44145;SDS011;29809;52.432;4.780;2022-07-09T04:23:06;2.78;;;1.65;;
44145;SDS011;29809;52.432;4.780;2022-07-09T04:25:31;9.45;;;1.88;;
44145;SDS011;29809;52.432;4.780;2022-07-09T04:27:56;1.40;;;1.30;;
44145;SDS011;29809;52.432;4.780;2022-07-09T04:30:24;1.40;;;1.30;;
44145;SDS011;29809;52.432;4.780;2022-07-09T04:32:49;2.72;;;1.30;;
44145;SDS011;29809;52.432;4.780;2022-07-09T04:35:15;3.28;;;1.63;;
44145;SDS011;29809;52.432;4.780;2022-07-09T04:37:40;1.67;;;1.50;;
44145;SDS011;29809;52.432;4.780;2022-07-09T04:40:07;2.45;;;1.35;;
44145;SDS011;29809;52.432;4.780;2022-07-09T04:42:32;2.70;;;1.67;;
44145;SDS011;29809;52.432;4.780;2022-07-09T04:44:57;4.10;;;1.40;;
44145;SDS011;29809;52.432;4.780;2022-07-09T04:47:23;1.65;;;1.50;;
44145;SDS011;29809;52.432;4.780;2022-07-09T04:49:48;2.10;;;1.65;;
44145;SDS011;29809;52.432;4.780;2022-07-09T04:52:13;2.67;;;1.80;;
44145;SDS011;29809;52.432;4.780;2022-07-09T04:54:42;3.45;;;1.73;;
44145;SDS011;29809;52.432;4.780;2022-07-09T04:57:07;2.13;;;1.73;;
44145;SDS011;29809;52.432;4.780;2022-07-09T04:59:32;2.40;;;2.15;;
44145;SDS011;29809;52.432;4.780;2022-07-09T05:01:58;2.50;;;1.77;;
44145;SDS011;29809;52.432;4.780;2022-07-09T05:04:23;2.28;;;1.92;;
44145;SDS011;29809;52.432;4.780;2022-07-09T05:06:48;2.90;;;2.20;;
44145;SDS011;29809;52.432;4.780;2022-07-09T05:09:13;4.20;;;2.53;;
44145;SDS011;29809;52.432;4.780;2022-07-09T05:11:38;6.10;;;2.03;;
44145;SDS011;29809;52.432;4.780;2022-07-09T05:14:04;3.15;;;2.17;;
44145;SDS011;29809;52.432;4.780;2022-07-09T05:16:29;2.40;;;2.20;;
44145;SDS011;29809;52.432;4.780;2022-07-09T05:18:54;5.78;;;2.80;;
44145;SDS011;29809;52.432;4.780;2022-07-09T05:21:19;6.35;;;3.05;;
44145;SDS011;29809;52.432;4.780;2022-07-09T05:23:45;9.18;;;3.75;;
44145;SDS011;29809;52.432;4.780;2022-07-09T05:26:10;6.30;;;2.70;;
44145;SDS011;29809;52.432;4.780;2022-07-09T05:28:35;3.72;;;2.95;;
44145;SDS011;29809;52.432;4.780;2022-07-09T05:31:00;5.82;;;2.92;;
44145;SDS011;29809;52.432;4.780;2022-07-09T05:33:26;3.83;;;3.10;;
44145;SDS011;29809;52.432;4.780;2022-07-09T05:35:52;4.38;;;3.95;;
44145;SDS011;29809;52.432;4.780;2022-07-09T05:38:17;5.25;;;4.75;;
44145;SDS011;29809;52.432;4.780;2022-07-09T05:40:43;6.95;;;4.40;;
44145;SDS011;29809;52.432;4.780;2022-07-09T05:43:08;31.23;;;9.50;;
44145;SDS011;29809;52.432;4.780;2022-07-09T05:45:33;99.53;;;24.50;;
44145;SDS011;29809;52.432;4.780;2022-07-09T05:47:58;97.47;;;30.88;;
44145;SDS011;29809;52.432;4.780;2022-07-09T05:50:24;65.53;;;21.00;;
44145;SDS011;29809;52.432;4.780;2022-07-09T05:52:49;55.97;;;19.65;;
44145;SDS011;29809;52.432;4.780;2022-07-09T05:55:14;49.58;;;16.48;;
44145;SDS011;29809;52.432;4.780;2022-07-09T05:57:40;45.03;;;16.58;;
44145;SDS011;29809;52.432;4.780;2022-07-09T06:00:05;29.98;;;12.60;;
44145;SDS011;29809;52.432;4.780;2022-07-09T06:02:32;27.23;;;10.70;;
44145;SDS011;29809;52.432;4.780;2022-07-09T06:04:57;27.20;;;11.38;;
44145;SDS011;29809;52.432;4.780;2022-07-09T06:07:22;19.33;;;9.68;;
44145;SDS011;29809;52.432;4.780;2022-07-09T06:09:47;16.83;;;7.57;;
44145;SDS011;29809;52.432;4.780;2022-07-09T06:12:13;14.85;;;7.28;;
44145;SDS011;29809;52.432;4.780;2022-07-09T06:14:38;18.38;;;7.18;;
44145;SDS011;29809;52.432;4.780;2022-07-09T06:17:03;12.45;;;5.55;;
44145;SDS011;29809;52.432;4.780;2022-07-09T06:19:32;12.10;;;5.63;;
44145;SDS011;29809;52.432;4.780;2022-07-09T06:21:58;12.02;;;5.18;;
44145;SDS011;29809;52.432;4.780;2022-07-09T06:24:23;6.22;;;3.90;;
44145;SDS011;29809;52.432;4.780;2022-07-09T06:26:49;5.75;;;3.47;;
44145;SDS011;29809;52.432;4.780;2022-07-09T06:29:14;6.50;;;3.60;;
44145;SDS011;29809;52.432;4.780;2022-07-09T06:31:40;9.73;;;3.83;;
44145;SDS011;29809;52.432;4.780;2022-07-09T06:34:06;7.97;;;3.38;;
44145;SDS011;29809;52.432;4.780;2022-07-09T06:36:31;9.88;;;3.15;;
44145;SDS011;29809;52.432;4.780;2022-07-09T06:38:56;8.38;;;3.15;;
44145;SDS011;29809;52.432;4.780;2022-07-09T06:41:40;4.93;;;2.20;;
44145;SDS011;29809;52.432;4.780;2022-07-09T06:44:05;5.53;;;1.80;;
44145;SDS011;29809;52.432;4.780;2022-07-09T06:46:30;5.45;;;1.88;;
44145;SDS011;29809;52.432;4.780;2022-07-09T06:48:56;2.75;;;2.03;;
44145;SDS011;29809;52.432;4.780;2022-07-09T06:51:21;3.58;;;1.73;;
44145;SDS011;29809;52.432;4.780;2022-07-09T06:53:46;5.20;;;1.50;;
44145;SDS011;29809;52.432;4.780;2022-07-09T06:56:11;11.23;;;1.88;;
44145;SDS011;29809;52.432;4.780;2022-07-09T06:58:37;7.13;;;1.75;;
44145;SDS011;29809;52.432;4.780;2022-07-09T07:01:02;4.28;;;1.85;;
44145;SDS011;29809;52.432;4.780;2022-07-09T07:03:27;2.65;;;1.42;;
44145;SDS011;29809;52.432;4.780;2022-07-09T07:05:52;2.25;;;1.23;;
44145;SDS011;29809;52.432;4.780;2022-07-09T07:08:18;4.63;;;1.13;;
44145;SDS011;29809;52.432;4.780;2022-07-09T07:10:43;3.10;;;1.33;;
44145;SDS011;29809;52.432;4.780;2022-07-09T07:13:08;2.22;;;1.20;;
44145;SDS011;29809;52.432;4.780;2022-07-09T07:15:35;1.90;;;1.02;;
44145;SDS011;29809;52.432;4.780;2022-07-09T07:18:00;4.25;;;1.10;;
44145;SDS011;29809;52.432;4.780;2022-07-09T07:20:26;2.95;;;1.13;;
44145;SDS011;29809;52.432;4.780;2022-07-09T07:22:51;2.90;;;1.08;;
44145;SDS011;29809;52.432;4.780;2022-07-09T07:25:16;1.45;;;0.77;;
44145;SDS011;29809;52.432;4.780;2022-07-09T07:27:41;2.28;;;1.30;;
44145;SDS011;29809;52.432;4.780;2022-07-09T07:30:07;2.13;;;0.90;;
44145;SDS011;29809;52.432;4.780;2022-07-09T07:32:32;2.03;;;0.75;;
44145;SDS011;29809;52.432;4.780;2022-07-09T07:34:58;3.08;;;1.08;;
44145;SDS011;29809;52.432;4.780;2022-07-09T07:37:23;1.95;;;0.85;;
44145;SDS011;29809;52.432;4.780;2022-07-09T07:39:48;5.25;;;1.23;;
44145;SDS011;29809;52.432;4.780;2022-07-09T07:42:14;6.03;;;1.33;;
44145;SDS011;29809;52.432;4.780;2022-07-09T07:44:40;4.75;;;1.15;;
44145;SDS011;29809;52.432;4.780;2022-07-09T07:47:05;5.18;;;1.30;;
44145;SDS011;29809;52.432;4.780;2022-07-09T07:49:30;3.55;;;1.20;;
44145;SDS011;29809;52.432;4.780;2022-07-09T07:51:55;2.35;;;1.00;;
44145;SDS011;29809;52.432;4.780;2022-07-09T07:54:21;1.08;;;1.00;;
44145;SDS011;29809;52.432;4.780;2022-07-09T07:56:46;3.22;;;1.35;;
44145;SDS011;29809;52.432;4.780;2022-07-09T07:59:11;3.30;;;1.35;;
44145;SDS011;29809;52.432;4.780;2022-07-09T08:01:36;3.20;;;1.25;;
44145;SDS011;29809;52.432;4.780;2022-07-09T08:04:02;3.05;;;1.30;;
44145;SDS011;29809;52.432;4.780;2022-07-09T08:06:27;2.63;;;0.98;;
44145;SDS011;29809;52.432;4.780;2022-07-09T08:08:53;3.72;;;1.20;;
44145;SDS011;29809;52.432;4.780;2022-07-09T08:11:18;3.65;;;1.20;;
44145;SDS011;29809;52.432;4.780;2022-07-09T08:13:43;4.68;;;1.65;;
44145;SDS011;29809;52.432;4.780;2022-07-09T08:16:08;5.47;;;1.10;;
44145;SDS011;29809;52.432;4.780;2022-07-09T08:18:33;5.05;;;1.58;;
44145;SDS011;29809;52.432;4.780;2022-07-09T08:20:59;3.20;;;1.10;;
44145;SDS011;29809;52.432;4.780;2022-07-09T08:23:24;3.55;;;1.55;;
44145;SDS011;29809;52.432;4.780;2022-07-09T08:25:49;4.32;;;1.58;;
44145;SDS011;29809;52.432;4.780;2022-07-09T08:28:15;3.38;;;1.05;;
44145;SDS011;29809;52.432;4.780;2022-07-09T08:30:40;4.65;;;1.55;;
44145;SDS011;29809;52.432;4.780;2022-07-09T08:33:06;4.70;;;1.10;;
44145;SDS011;29809;52.432;4.780;2022-07-09T08:35:31;3.15;;;1.30;;
44145;SDS011;29809;52.432;4.780;2022-07-09T08:37:56;2.53;;;1.10;;
44145;SDS011;29809;52.432;4.780;2022-07-09T08:40:21;4.22;;;1.20;;
44145;SDS011;29809;52.432;4.780;2022-07-09T08:42:48;2.25;;;1.13;;
44145;SDS011;29809;52.432;4.780;2022-07-09T08:45:13;2.50;;;0.90;;
44145;SDS011;29809;52.432;4.780;2022-07-09T08:47:41;4.25;;;1.20;;
44145;SDS011;29809;52.432;4.780;2022-07-09T08:50:07;3.08;;;1.10;;
44145;SDS011;29809;52.432;4.780;2022-07-09T08:52:32;2.55;;;1.00;;
44145;SDS011;29809;52.432;4.780;2022-07-09T08:54:59;2.30;;;1.20;;
44145;SDS011;29809;52.432;4.780;2022-07-09T08:57:24;3.55;;;0.90;;
44145;SDS011;29809;52.432;4.780;2022-07-09T08:59:49;3.90;;;1.30;;
44145;SDS011;29809;52.432;4.780;2022-07-09T09:02:15;3.17;;;1.10;;
44145;SDS011;29809;52.432;4.780;2022-07-09T09:04:40;3.35;;;1.13;;
44145;SDS011;29809;52.432;4.780;2022-07-09T09:09:37;4.97;;;1.35;;
44145;SDS011;29809;52.432;4.780;2022-07-09T09:12:02;4.03;;;1.15;;
44145;SDS011;29809;52.432;4.780;2022-07-09T09:14:28;2.40;;;0.90;;
44145;SDS011;29809;52.432;4.780;2022-07-09T09:16:54;2.80;;;1.20;;
44145;SDS011;29809;52.432;4.780;2022-07-09T09:19:27;3.65;;;1.13;;
44145;SDS011;29809;52.432;4.780;2022-07-09T09:21:54;3.47;;;1.25;;
44145;SDS011;29809;52.432;4.780;2022-07-09T09:24:22;2.95;;;1.35;;
44145;SDS011;29809;52.432;4.780;2022-07-09T09:26:48;3.00;;;1.08;;
44145;SDS011;29809;52.432;4.780;2022-07-09T09:29:14;2.90;;;0.90;;
44145;SDS011;29809;52.432;4.780;2022-07-09T09:31:39;3.28;;;1.13;;
44145;SDS011;29809;52.432;4.780;2022-07-09T09:34:14;3.28;;;1.00;;
44145;SDS011;29809;52.432;4.780;2022-07-09T09:36:41;1.65;;;0.88;;
44145;SDS011;29809;52.432;4.780;2022-07-09T09:41:38;3.47;;;1.23;;
44145;SDS011;29809;52.432;4.780;2022-07-09T09:44:08;6.25;;;1.42;;
44145;SDS011;29809;52.432;4.780;2022-07-09T09:46:37;3.00;;;1.10;;
44145;SDS011;29809;52.432;4.780;2022-07-09T09:49:03;3.28;;;1.17;;
44145;SDS011;29809;52.432;4.780;2022-07-09T09:51:31;2.95;;;1.15;;
44145;SDS011;29809;52.432;4.780;2022-07-09T09:53:58;3.05;;;1.27;;
44145;SDS011;29809;52.432;4.780;2022-07-09T09:56:24;2.38;;;1.10;;
44145;SDS011;29809;52.432;4.780;2022-07-09T09:58:50;5.32;;;1.15;;
44145;SDS011;29809;52.432;4.780;2022-07-09T10:01:16;3.10;;;1.17;;
44145;SDS011;29809;52.432;4.780;2022-07-09T10:03:41;1.70;;;1.10;;
44145;SDS011;29809;52.432;4.780;2022-07-09T10:06:07;4.18;;;1.73;;
44145;SDS011;29809;52.432;4.780;2022-07-09T10:08:34;3.75;;;1.02;;
44145;SDS011;29809;52.432;4.780;2022-07-09T10:11:00;3.22;;;1.05;;
44145;SDS011;29809;52.432;4.780;2022-07-09T10:13:25;4.38;;;1.17;;
44145;SDS011;29809;52.432;4.780;2022-07-09T10:15:50;3.80;;;1.08;;
44145;SDS011;29809;52.432;4.780;2022-07-09T10:18:17;4.38;;;1.23;;
44145;SDS011;29809;52.432;4.780;2022-07-09T10:20:43;5.20;;;1.30;;
44145;SDS011;29809;52.432;4.780;2022-07-09T10:23:08;5.93;;;1.30;;
44145;SDS011;29809;52.432;4.780;2022-07-09T10:25:52;2.63;;;1.50;;
44145;SDS011;29809;52.432;4.780;2022-07-09T10:28:20;3.33;;;1.20;;
44145;SDS011;29809;52.432;4.780;2022-07-09T10:30:46;3.13;;;1.30;;
44145;SDS011;29809;52.432;4.780;2022-07-09T10:33:21;1.83;;;1.13;;
44145;SDS011;29809;52.432;4.780;2022-07-09T10:35:47;1.92;;;1.15;;
44145;SDS011;29809;52.432;4.780;2022-07-09T10:38:13;3.55;;;1.15;;
44145;SDS011;29809;52.432;4.780;2022-07-09T10:40:39;3.63;;;1.10;;
44145;SDS011;29809;52.432;4.780;2022-07-09T10:43:05;3.63;;;1.13;;
44145;SDS011;29809;52.432;4.780;2022-07-09T10:45:37;2.22;;;1.08;;
44145;SDS011;29809;52.432;4.780;2022-07-09T10:48:03;2.97;;;1.10;;
44145;SDS011;29809;52.432;4.780;2022-07-09T10:50:30;2.97;;;1.00;;
44145;SDS011;29809;52.432;4.780;2022-07-09T10:52:55;5.03;;;1.55;;
44145;SDS011;29809;52.432;4.780;2022-07-09T10:55:22;4.00;;;1.30;;
44145;SDS011;29809;52.432;4.780;2022-07-09T10:57:48;4.38;;;1.40;;
44145;SDS011;29809;52.432;4.780;2022-07-09T11:00:14;2.80;;;1.23;;
44145;SDS011;29809;52.432;4.780;2022-07-09T11:02:50;2.47;;;1.20;;
44145;SDS011;29809;52.432;4.780;2022-07-09T11:05:15;4.40;;;1.48;;
44145;SDS011;29809;52.432;4.780;2022-07-09T11:07:40;4.85;;;1.40;;
44145;SDS011;29809;52.432;4.780;2022-07-09T11:10:06;2.47;;;1.30;;
44145;SDS011;29809;52.432;4.780;2022-07-09T11:12:31;3.22;;;1.25;;
44145;SDS011;29809;52.432;4.780;2022-07-09T11:14:56;2.40;;;1.25;;
44145;SDS011;29809;52.432;4.780;2022-07-09T11:17:21;3.55;;;1.30;;
44145;SDS011;29809;52.432;4.780;2022-07-09T11:19:47;4.85;;;1.35;;
44145;SDS011;29809;52.432;4.780;2022-07-09T11:22:14;2.78;;;1.05;;
44145;SDS011;29809;52.432;4.780;2022-07-09T11:24:39;3.55;;;1.65;;
44145;SDS011;29809;52.432;4.780;2022-07-09T11:27:05;3.60;;;1.17;;
44145;SDS011;29809;52.432;4.780;2022-07-09T11:29:30;3.70;;;1.33;;
44145;SDS011;29809;52.432;4.780;2022-07-09T11:31:56;4.07;;;1.60;;
44145;SDS011;29809;52.432;4.780;2022-07-09T11:34:21;2.28;;;1.08;;
44145;SDS011;29809;52.432;4.780;2022-07-09T11:36:50;3.75;;;1.48;;
44145;SDS011;29809;52.432;4.780;2022-07-09T11:39:31;3.60;;;1.50;;
44145;SDS011;29809;52.432;4.780;2022-07-09T11:41:58;4.55;;;1.58;;
44145;SDS011;29809;52.432;4.780;2022-07-09T11:44:30;5.35;;;1.60;;
44145;SDS011;29809;52.432;4.780;2022-07-09T11:47:06;4.28;;;1.52;;
44145;SDS011;29809;52.432;4.780;2022-07-09T11:49:36;4.25;;;1.77;;
44145;SDS011;29809;52.432;4.780;2022-07-09T11:52:01;2.88;;;1.42;;
44145;SDS011;29809;52.432;4.780;2022-07-09T11:54:27;4.38;;;1.58;;
44145;SDS011;29809;52.432;4.780;2022-07-09T11:56:53;5.07;;;1.60;;
44145;SDS011;29809;52.432;4.780;2022-07-09T11:59:25;3.05;;;1.23;;
44145;SDS011;29809;52.432;4.780;2022-07-09T12:01:50;2.92;;;1.20;;
44145;SDS011;29809;52.432;4.780;2022-07-09T12:04:18;6.68;;;1.52;;
44145;SDS011;29809;52.432;4.780;2022-07-09T12:06:48;3.90;;;1.20;;
44145;SDS011;29809;52.432;4.780;2022-07-09T12:09:14;3.60;;;1.40;;
44145;SDS011;29809;52.432;4.780;2022-07-09T12:11:41;4.63;;;1.40;;
44145;SDS011;29809;52.432;4.780;2022-07-09T12:14:06;5.03;;;1.88;;
44145;SDS011;29809;52.432;4.780;2022-07-09T12:16:32;3.92;;;1.55;;
44145;SDS011;29809;52.432;4.780;2022-07-09T12:18:57;9.85;;;1.50;;
44145;SDS011;29809;52.432;4.780;2022-07-09T12:21:23;8.27;;;1.88;;
44145;SDS011;29809;52.432;4.780;2022-07-09T12:23:48;6.55;;;2.13;;
44145;SDS011;29809;52.432;4.780;2022-07-09T12:26:13;7.65;;;2.08;;
44145;SDS011;29809;52.432;4.780;2022-07-09T12:28:39;10.07;;;2.33;;
44145;SDS011;29809;52.432;4.780;2022-07-09T12:31:04;5.43;;;1.80;;
44145;SDS011;29809;52.432;4.780;2022-07-09T12:33:30;7.20;;;2.28;;
44145;SDS011;29809;52.432;4.780;2022-07-09T12:35:55;7.43;;;2.42;;
44145;SDS011;29809;52.432;4.780;2022-07-09T12:38:20;9.15;;;1.85;;
44145;SDS011;29809;52.432;4.780;2022-07-09T12:40:45;6.60;;;2.05;;
44145;SDS011;29809;52.432;4.780;2022-07-09T12:43:11;5.05;;;2.28;;
44145;SDS011;29809;52.432;4.780;2022-07-09T12:45:36;3.90;;;1.63;;
44145;SDS011;29809;52.432;4.780;2022-07-09T12:48:01;5.38;;;1.52;;
44145;SDS011;29809;52.432;4.780;2022-07-09T12:50:26;3.80;;;1.58;;
44145;SDS011;29809;52.432;4.780;2022-07-09T12:52:52;6.15;;;1.80;;
44145;SDS011;29809;52.432;4.780;2022-07-09T12:55:17;6.63;;;1.80;;
44145;SDS011;29809;52.432;4.780;2022-07-09T12:57:42;7.07;;;1.35;;
44145;SDS011;29809;52.432;4.780;2022-07-09T13:00:08;5.03;;;1.50;;
44145;SDS011;29809;52.432;4.780;2022-07-09T13:02:39;6.15;;;1.80;;
44145;SDS011;29809;52.432;4.780;2022-07-09T13:05:05;7.22;;;1.58;;
44145;SDS011;29809;52.432;4.780;2022-07-09T13:07:30;4.18;;;1.38;;
44145;SDS011;29809;52.432;4.780;2022-07-09T13:09:56;4.10;;;1.33;;
44145;SDS011;29809;52.432;4.780;2022-07-09T13:12:21;4.30;;;1.70;;
44145;SDS011;29809;52.432;4.780;2022-07-09T13:14:46;3.50;;;1.33;;
44145;SDS011;29809;52.432;4.780;2022-07-09T13:17:11;4.82;;;1.70;;
44145;SDS011;29809;52.432;4.780;2022-07-09T13:19:37;3.20;;;1.40;;
44145;SDS011;29809;52.432;4.780;2022-07-09T13:22:02;4.47;;;1.50;;
44145;SDS011;29809;52.432;4.780;2022-07-09T13:24:27;6.65;;;1.40;;
44145;SDS011;29809;52.432;4.780;2022-07-09T13:26:53;4.88;;;1.52;;
44145;SDS011;29809;52.432;4.780;2022-07-09T13:29:18;5.03;;;1.70;;
44145;SDS011;29809;52.432;4.780;2022-07-09T13:31:43;7.00;;;1.80;;
44145;SDS011;29809;52.432;4.780;2022-07-09T13:34:08;4.65;;;1.45;;
44145;SDS011;29809;52.432;4.780;2022-07-09T13:36:34;7.28;;;1.48;;
44145;SDS011;29809;52.432;4.780;2022-07-09T13:38:59;3.55;;;1.30;;
44145;SDS011;29809;52.432;4.780;2022-07-09T13:41:24;5.03;;;1.08;;
44145;SDS011;29809;52.432;4.780;2022-07-09T13:43:50;9.30;;;1.60;;
44145;SDS011;29809;52.432;4.780;2022-07-09T13:46:15;6.57;;;1.98;;
44145;SDS011;29809;52.432;4.780;2022-07-09T13:48:41;6.20;;;1.90;;
44145;SDS011;29809;52.432;4.780;2022-07-09T13:51:06;7.53;;;1.40;;
44145;SDS011;29809;52.432;4.780;2022-07-09T13:53:32;6.35;;;1.67;;
44145;SDS011;29809;52.432;4.780;2022-07-09T13:55:57;5.82;;;1.45;;
44145;SDS011;29809;52.432;4.780;2022-07-09T13:58:22;6.38;;;1.42;;
44145;SDS011;29809;52.432;4.780;2022-07-09T14:00:48;6.90;;;1.27;;
44145;SDS011;29809;52.432;4.780;2022-07-09T14:03:13;6.20;;;1.63;;
44145;SDS011;29809;52.432;4.780;2022-07-09T14:05:38;2.40;;;1.30;;
44145;SDS011;29809;52.432;4.780;2022-07-09T14:08:04;3.88;;;1.50;;
44145;SDS011;29809;52.432;4.780;2022-07-09T14:10:30;9.95;;;1.55;;
44145;SDS011;29809;52.432;4.780;2022-07-09T14:12:55;3.70;;;1.30;;
44145;SDS011;29809;52.432;4.780;2022-07-09T14:15:21;3.63;;;1.40;;
44145;SDS011;29809;52.432;4.780;2022-07-09T14:17:47;3.50;;;1.42;;
44145;SDS011;29809;52.432;4.780;2022-07-09T14:20:13;3.90;;;1.33;;
44145;SDS011;29809;52.432;4.780;2022-07-09T14:22:38;5.05;;;1.48;;
44145;SDS011;29809;52.432;4.780;2022-07-09T14:25:04;3.15;;;1.52;;
44145;SDS011;29809;52.432;4.780;2022-07-09T14:27:30;2.17;;;1.13;;
44145;SDS011;29809;52.432;4.780;2022-07-09T14:29:55;5.55;;;1.10;;
44145;SDS011;29809;52.432;4.780;2022-07-09T14:32:20;2.83;;;1.35;;
44145;SDS011;29809;52.432;4.780;2022-07-09T14:34:46;2.65;;;0.90;;
44145;SDS011;29809;52.432;4.780;2022-07-09T14:37:11;3.75;;;1.40;;
44145;SDS011;29809;52.432;4.780;2022-07-09T14:39:36;4.97;;;1.73;;
44145;SDS011;29809;52.432;4.780;2022-07-09T14:42:01;4.15;;;1.52;;